createdAt,value
2019-03-11T00:02:58.361Z,3.34
2019-03-11T00:08:03.793Z,3.37
2019-03-11T00:13:09.049Z,3.31
2019-03-11T00:18:14.413Z,3.32
2019-03-11T00:23:19.682Z,3.38
2019-03-11T00:28:24.909Z,3.38
2019-03-11T00:33:30.185Z,3.39
2019-03-11T00:38:35.437Z,3.38
2019-03-11T00:43:40.636Z,3.43
2019-03-11T00:48:47.334Z,3.47
2019-03-11T00:53:52.801Z,3.55
2019-03-11T00:58:59.479Z,3.58
2019-03-11T01:04:04.781Z,3.60
2019-03-11T01:09:10.450Z,3.61
2019-03-11T01:14:16.123Z,3.73
2019-03-11T01:19:21.977Z,3.76
2019-03-11T01:24:27.221Z,3.72
2019-03-11T01:29:32.449Z,3.64
2019-03-11T01:34:39.021Z,3.77
2019-03-11T01:39:44.399Z,3.74
2019-03-11T01:44:49.624Z,3.83
2019-03-11T01:49:54.826Z,3.88
2019-03-11T01:55:00.012Z,4.01
2019-03-11T02:00:06.429Z,3.94
2019-03-11T02:05:11.901Z,3.90
2019-03-11T02:10:17.184Z,3.73
2019-03-11T02:15:23.763Z,3.50
2019-03-11T02:20:29.107Z,2.67
2019-03-11T02:25:34.379Z,2.16
2019-03-11T02:30:39.954Z,2.07
2019-03-11T02:35:45.153Z,2.05
2019-03-11T02:40:50.433Z,2.11
2019-03-11T02:45:55.703Z,2.02
2019-03-11T02:51:01.036Z,2.09
2019-03-11T02:56:06.333Z,2.12
2019-03-11T03:01:30.674Z,2.09
2019-03-11T03:06:35.878Z,2.04
2019-03-11T03:11:41.349Z,1.94
2019-03-11T03:16:46.766Z,1.79
2019-03-11T03:21:51.986Z,1.82
2019-03-11T03:26:57.366Z,1.78
2019-03-11T03:32:02.642Z,1.77
2019-03-11T03:37:08.150Z,1.74
2019-03-11T03:42:13.888Z,1.75
2019-03-11T03:47:19.340Z,1.75
2019-03-11T03:52:24.519Z,1.69
2019-03-11T03:57:29.773Z,1.68
2019-03-11T04:02:34.962Z,1.66
2019-03-11T04:07:40.182Z,1.60
2019-03-11T04:12:45.643Z,1.59
2019-03-11T04:17:51.042Z,1.60
2019-03-11T04:22:56.254Z,1.60
2019-03-11T04:28:01.469Z,1.55
2019-03-11T04:33:06.705Z,1.55
2019-03-11T04:38:11.892Z,1.63
2019-03-11T04:43:17.138Z,1.60
2019-03-11T04:48:22.342Z,1.64
2019-03-11T04:53:27.554Z,1.64
2019-03-11T04:58:32.835Z,1.62
2019-03-11T05:03:38.070Z,1.64
2019-03-11T05:08:43.265Z,1.70
2019-03-11T05:13:48.532Z,1.63
2019-03-11T05:18:53.776Z,1.71
2019-03-11T05:23:59.172Z,1.72
2019-03-11T05:29:04.433Z,1.71
2019-03-11T05:34:09.629Z,1.76
2019-03-11T05:39:15.068Z,1.83
2019-03-11T05:44:20.314Z,1.69
2019-03-11T05:49:25.876Z,1.72
2019-03-11T05:54:31.213Z,1.73
2019-03-11T05:59:36.767Z,1.72
2019-03-11T06:04:41.992Z,1.70
2019-03-11T06:09:47.289Z,1.73
2019-03-11T06:14:52.546Z,1.81
2019-03-11T06:20:19.776Z,1.86
2019-03-11T06:25:25.060Z,1.87
2019-03-11T06:30:30.252Z,2.00
2019-03-11T06:35:35.525Z,2.11
2019-03-11T06:40:40.799Z,2.08
2019-03-11T06:45:46.103Z,2.36
2019-03-11T06:50:51.613Z,2.42
2019-03-11T06:55:57.249Z,2.21
2019-03-11T07:01:02.675Z,2.10
2019-03-11T07:06:09.678Z,2.19
2019-03-11T07:11:15.613Z,2.29
2019-03-11T07:16:20.943Z,2.36
2019-03-11T07:21:26.235Z,2.37
2019-03-11T07:26:31.515Z,2.56
2019-03-11T07:31:37.857Z,2.58
2019-03-11T07:36:43.085Z,2.86
2019-03-11T07:41:48.412Z,2.97
2019-03-11T07:46:53.590Z,3.24
2019-03-11T07:51:59.287Z,3.38
2019-03-11T07:57:04.870Z,3.73
2019-03-11T08:02:10.499Z,4.73
2019-03-11T08:07:15.880Z,4.83
2019-03-11T08:12:21.131Z,4.02
2019-03-11T08:17:26.877Z,3.57
2019-03-11T08:22:33.949Z,3.38
2019-03-11T08:27:39.280Z,3.20
2019-03-11T08:32:44.607Z,3.04
2019-03-11T08:37:49.825Z,2.72
2019-03-11T08:42:55.234Z,2.64
2019-03-11T08:48:00.772Z,3.05
2019-03-11T08:53:06.112Z,2.82
2019-03-11T08:58:11.422Z,3.21
2019-03-11T09:03:16.640Z,3.57
2019-03-11T09:08:21.902Z,4.45
2019-03-11T09:13:27.829Z,4.57
2019-03-11T09:18:33.090Z,4.01
2019-03-11T09:23:38.476Z,4.06
2019-03-11T09:28:43.652Z,4.27
2019-03-11T09:33:48.827Z,3.92
2019-03-11T09:38:54.354Z,3.86
2019-03-11T09:43:59.964Z,3.46
2019-03-11T09:49:05.259Z,3.67
2019-03-11T09:54:10.440Z,4.15
2019-03-11T10:05:37.336Z,4.20
2019-03-11T10:10:42.997Z,4.13
2019-03-11T10:15:48.203Z,4.42
2019-03-11T10:20:53.511Z,4.80
2019-03-11T10:25:59.451Z,4.48
2019-03-11T10:31:05.956Z,4.74
2019-03-11T10:36:11.444Z,4.58
2019-03-11T10:41:16.657Z,5.24
2019-03-11T10:46:22.176Z,5.41
2019-03-11T10:51:27.469Z,5.28
2019-03-11T10:56:33.165Z,5.16
2019-03-11T11:01:38.532Z,4.72
2019-03-11T11:06:43.739Z,4.63
2019-03-11T11:11:49.760Z,4.81
2019-03-11T11:16:55.323Z,4.52
2019-03-11T11:22:01.537Z,4.59
2019-03-11T11:27:08.028Z,5.11
2019-03-11T11:32:13.239Z,5.80
2019-03-11T11:37:18.392Z,5.02
2019-03-11T11:42:23.576Z,4.76
2019-03-11T11:47:29.062Z,4.76
2019-03-11T11:52:34.260Z,4.78
2019-03-11T11:57:39.486Z,4.77
2019-03-11T12:02:44.960Z,4.62
2019-03-11T12:07:50.379Z,4.96
2019-03-11T12:12:55.661Z,4.86
2019-03-11T12:18:00.985Z,5.00
2019-03-11T12:23:07.168Z,5.31
2019-03-11T12:28:12.434Z,5.76
2019-03-11T12:33:20.232Z,5.41
2019-03-11T12:38:24.755Z,5.79
2019-03-11T12:43:30.019Z,7.63
2019-03-11T12:48:35.458Z,8.93
2019-03-11T12:53:40.696Z,7.97
2019-03-11T12:58:45.960Z,7.06
2019-03-11T13:03:51.148Z,6.33
2019-03-11T13:08:56.325Z,6.08
2019-03-11T13:14:01.520Z,6.57
2019-03-11T13:19:13.045Z,7.63
2019-03-11T13:24:14.369Z,10.59
2019-03-11T13:29:19.758Z,12.05
2019-03-11T13:34:25.065Z,8.00
2019-03-11T13:39:30.361Z,6.59
2019-03-11T13:44:35.664Z,6.03
2019-03-11T13:49:41.223Z,5.42
2019-03-11T13:54:46.492Z,4.94
2019-03-11T13:59:51.980Z,4.75
2019-03-11T14:04:57.207Z,4.62
2019-03-11T14:10:02.518Z,4.80
2019-03-11T14:15:10.414Z,4.89
2019-03-11T14:20:16.366Z,4.97
2019-03-11T14:25:21.707Z,4.51
2019-03-11T14:30:26.983Z,4.12
2019-03-11T14:35:32.379Z,4.13
2019-03-11T14:40:37.583Z,4.30
2019-03-11T14:45:42.905Z,4.30
2019-03-11T14:50:48.268Z,4.83
2019-03-11T14:55:54.524Z,5.12
2019-03-11T15:01:32.890Z,4.95
2019-03-11T15:06:39.253Z,4.67
2019-03-11T15:11:45.130Z,4.48
2019-03-11T15:16:51.605Z,4.49
2019-03-11T15:21:57.459Z,4.54
2019-03-11T15:27:03.224Z,4.79
2019-03-11T15:32:08.699Z,4.90
2019-03-11T15:37:14.116Z,4.98
2019-03-11T15:42:19.489Z,4.83
2019-03-11T15:47:25.086Z,4.96
2019-03-11T15:52:32.474Z,5.08
2019-03-11T15:57:40.052Z,5.08
2019-03-11T16:02:45.828Z,5.13
2019-03-11T16:07:51.431Z,5.22
2019-03-11T16:12:58.140Z,5.63
2019-03-11T16:18:03.950Z,5.39
2019-03-11T16:23:09.642Z,5.24
2019-03-11T16:28:15.819Z,5.16
2019-03-11T16:33:21.065Z,5.23
2019-03-11T16:38:26.623Z,5.15
2019-03-11T16:43:31.889Z,5.13
2019-03-11T16:48:37.058Z,5.05
2019-03-11T16:53:42.593Z,5.15
2019-03-11T16:58:47.997Z,5.14
2019-03-11T17:03:53.633Z,5.11
2019-03-11T17:08:58.817Z,5.09
2019-03-11T17:14:04.182Z,5.10
2019-03-11T17:19:09.348Z,5.08
2019-03-11T17:24:14.532Z,5.06
2019-03-11T17:29:19.880Z,5.11
2019-03-11T17:34:25.065Z,5.03
2019-03-11T17:39:30.586Z,5.09
2019-03-11T17:44:36.138Z,5.10
2019-03-11T17:49:41.336Z,5.10
2019-03-11T17:54:46.605Z,5.03
2019-03-11T17:59:52.197Z,5.02
2019-03-11T18:04:57.643Z,4.91
2019-03-11T18:10:03.011Z,4.85
2019-03-11T18:15:09.773Z,4.81
2019-03-11T18:20:15.100Z,4.80
2019-03-11T18:25:20.547Z,4.78
2019-03-11T18:30:25.858Z,4.76
2019-03-11T18:35:33.996Z,4.72
2019-03-11T18:40:38.399Z,4.74
2019-03-11T18:45:43.673Z,4.73
2019-03-11T18:50:49.141Z,4.67
2019-03-11T18:55:54.409Z,4.63
2019-03-11T19:00:59.733Z,4.67
2019-03-11T19:06:07.813Z,4.64
2019-03-11T19:11:13.187Z,4.62
2019-03-11T19:16:18.412Z,4.64
2019-03-11T19:21:23.974Z,4.66
2019-03-11T19:26:31.101Z,4.52
2019-03-11T19:31:36.352Z,4.57
2019-03-11T19:36:41.879Z,4.57
2019-03-11T19:41:47.919Z,4.53
2019-03-11T19:46:53.346Z,4.46
2019-03-11T19:51:58.935Z,4.43
2019-03-11T19:57:04.427Z,4.40
2019-03-11T20:02:09.842Z,4.48
2019-03-11T20:07:16.117Z,4.49
2019-03-11T20:12:22.824Z,4.45
2019-03-11T20:17:29.267Z,4.36
2019-03-11T20:22:34.865Z,4.29
2019-03-11T20:27:41.702Z,4.22
2019-03-11T20:32:48.792Z,4.19
2019-03-11T20:37:54.483Z,4.21
2019-03-11T20:43:00.118Z,4.29
2019-03-11T20:48:05.344Z,4.34
2019-03-11T20:53:10.636Z,4.28
2019-03-11T20:58:16.012Z,4.35
2019-03-11T21:03:21.557Z,4.30
2019-03-11T21:08:26.998Z,4.27
2019-03-11T21:13:32.320Z,4.25
2019-03-11T21:18:38.439Z,4.19
2019-03-11T21:23:44.578Z,4.14
2019-03-11T21:28:50.775Z,4.16
2019-03-11T21:33:59.190Z,4.11
2019-03-11T21:39:07.068Z,4.07
2019-03-11T21:44:14.110Z,4.07
2019-03-11T21:49:19.453Z,4.06
2019-03-11T21:54:25.600Z,4.04
2019-03-11T21:59:30.987Z,4.00
2019-03-11T22:04:36.342Z,3.97
2019-03-11T22:09:42.031Z,3.96
2019-03-11T22:14:47.674Z,3.91
2019-03-11T22:19:53.625Z,3.90
2019-03-11T22:24:58.865Z,3.86
2019-03-11T22:30:04.399Z,3.82
2019-03-11T22:35:13.212Z,3.82
2019-03-11T22:40:17.788Z,3.73
2019-03-11T22:45:23.007Z,3.72
2019-03-11T22:50:28.207Z,3.69
2019-03-11T22:55:33.420Z,3.72
2019-03-11T23:00:57.609Z,3.66
2019-03-11T23:06:04.406Z,3.63
2019-03-11T23:11:09.630Z,3.68
2019-03-11T23:16:15.065Z,3.67
2019-03-11T23:21:20.268Z,3.69
2019-03-11T23:26:25.563Z,3.72
2019-03-11T23:31:30.799Z,3.60
2019-03-11T23:36:36.046Z,3.75
2019-03-11T23:41:41.336Z,3.74
2019-03-11T23:46:46.764Z,3.77
2019-03-11T23:51:52.187Z,3.88
2019-03-11T23:56:57.749Z,3.83
